sensor_id;sensor_type;location;lat;lon;timestamp;P1;durP1;ratioP1;P2;durP2;ratioP2
3333;SDS011;1679;50.392;8.008;2023-06-10T00:00:39;13.37;;;12.17;;
3333;SDS011;1679;50.392;8.008;2023-06-10T00:03:06;13.50;;;12.20;;
3333;SDS011;1679;50.392;8.008;2023-06-10T00:05:32;12.97;;;11.80;;
3333;SDS011;1679;50.392;8.008;2023-06-10T00:07:59;13.50;;;12.13;;
3333;SDS011;1679;50.392;8.008;2023-06-10T00:10:27;13.80;;;12.80;;
3333;SDS011;1679;50.392;8.008;2023-06-10T00:12:52;13.13;;;11.97;;
3333;SDS011;1679;50.392;8.008;2023-06-10T00:15:20;13.83;;;12.70;;
3333;SDS011;1679;50.392;8.008;2023-06-10T00:17:46;13.13;;;11.93;;
3333;SDS011;1679;50.392;8.008;2023-06-10T00:20:12;13.43;;;12.23;;
3333;SDS011;1679;50.392;8.008;2023-06-10T00:22:39;13.27;;;12.17;;
3333;SDS011;1679;50.392;8.008;2023-06-10T00:25:06;14.13;;;13.03;;
3333;SDS011;1679;50.392;8.008;2023-06-10T00:27:32;14.37;;;12.87;;
3333;SDS011;1679;50.392;8.008;2023-06-10T00:30:03;14.10;;;12.73;;
3333;SDS011;1679;50.392;8.008;2023-06-10T00:32:31;13.00;;;12.00;;
3333;SDS011;1679;50.392;8.008;2023-06-10T00:34:57;12.83;;;11.83;;
3333;SDS011;1679;50.392;8.008;2023-06-10T00:37:24;15.40;;;13.53;;
3333;SDS011;1679;50.392;8.008;2023-06-10T00:39:50;13.57;;;12.23;;
3333;SDS011;1679;50.392;8.008;2023-06-10T00:42:15;13.10;;;12.10;;
3333;SDS011;1679;50.392;8.008;2023-06-10T00:44:41;14.33;;;13.13;;
3333;SDS011;1679;50.392;8.008;2023-06-10T00:47:06;14.50;;;12.70;;
3333;SDS011;1679;50.392;8.008;2023-06-10T00:49:32;14.10;;;12.80;;
3333;SDS011;1679;50.392;8.008;2023-06-10T00:51:58;15.00;;;13.60;;
3333;SDS011;1679;50.392;8.008;2023-06-10T00:54:24;14.50;;;13.17;;
3333;SDS011;1679;50.392;8.008;2023-06-10T00:56:51;14.20;;;12.87;;
3333;SDS011;1679;50.392;8.008;2023-06-10T00:59:17;14.30;;;12.90;;
3333;SDS011;1679;50.392;8.008;2023-06-10T01:01:43;16.33;;;13.80;;
3333;SDS011;1679;50.392;8.008;2023-06-10T01:04:11;13.40;;;12.40;;
3333;SDS011;1679;50.392;8.008;2023-06-10T01:06:46;15.60;;;14.27;;
3333;SDS011;1679;50.392;8.008;2023-06-10T01:12:34;14.43;;;13.20;;
3333;SDS011;1679;50.392;8.008;2023-06-10T01:15:12;14.03;;;12.83;;
3333;SDS011;1679;50.392;8.008;2023-06-10T01:17:58;16.03;;;14.70;;
3333;SDS011;1679;50.392;8.008;2023-06-10T01:20:29;14.73;;;13.53;;
3333;SDS011;1679;50.392;8.008;2023-06-10T01:22:58;13.00;;;12.00;;
3333;SDS011;1679;50.392;8.008;2023-06-10T01:25:25;13.73;;;12.40;;
3333;SDS011;1679;50.392;8.008;2023-06-10T01:28:06;14.27;;;13.03;;
3333;SDS011;1679;50.392;8.008;2023-06-10T01:30:44;14.43;;;13.27;;
3333;SDS011;1679;50.392;8.008;2023-06-10T01:33:24;14.57;;;13.20;;
3333;SDS011;1679;50.392;8.008;2023-06-10T01:35:57;14.03;;;12.93;;
3333;SDS011;1679;50.392;8.008;2023-06-10T01:38:25;14.50;;;13.23;;
3333;SDS011;1679;50.392;8.008;2023-06-10T01:40:55;14.63;;;13.30;;
3333;SDS011;1679;50.392;8.008;2023-06-10T01:43:21;13.93;;;12.83;;
3333;SDS011;1679;50.392;8.008;2023-06-10T01:45:47;14.07;;;12.87;;
3333;SDS011;1679;50.392;8.008;2023-06-10T01:48:13;15.30;;;13.80;;
3333;SDS011;1679;50.392;8.008;2023-06-10T01:50:38;14.20;;;13.00;;
3333;SDS011;1679;50.392;8.008;2023-06-10T01:53:04;14.00;;;12.87;;
3333;SDS011;1679;50.392;8.008;2023-06-10T01:55:30;13.90;;;12.70;;
3333;SDS011;1679;50.392;8.008;2023-06-10T01:57:56;14.73;;;13.47;;
3333;SDS011;1679;50.392;8.008;2023-06-10T02:00:22;15.00;;;13.70;;
3333;SDS011;1679;50.392;8.008;2023-06-10T02:02:48;14.70;;;13.27;;
3333;SDS011;1679;50.392;8.008;2023-06-10T02:05:15;15.60;;;14.13;;
3333;SDS011;1679;50.392;8.008;2023-06-10T02:07:40;15.00;;;13.47;;
3333;SDS011;1679;50.392;8.008;2023-06-10T02:10:07;14.80;;;13.30;;
3333;SDS011;1679;50.392;8.008;2023-06-10T02:12:33;14.00;;;12.70;;
3333;SDS011;1679;50.392;8.008;2023-06-10T02:14:59;15.20;;;14.00;;
3333;SDS011;1679;50.392;8.008;2023-06-10T02:17:24;14.20;;;13.00;;
3333;SDS011;1679;50.392;8.008;2023-06-10T02:19:51;14.40;;;13.07;;
3333;SDS011;1679;50.392;8.008;2023-06-10T02:22:20;13.90;;;12.80;;
3333;SDS011;1679;50.392;8.008;2023-06-10T02:24:46;14.57;;;13.27;;
3333;SDS011;1679;50.392;8.008;2023-06-10T02:27:14;14.63;;;13.33;;
3333;SDS011;1679;50.392;8.008;2023-06-10T02:29:40;14.13;;;12.77;;
3333;SDS011;1679;50.392;8.008;2023-06-10T02:32:06;14.10;;;12.80;;
3333;SDS011;1679;50.392;8.008;2023-06-10T02:34:32;14.20;;;13.10;;
3333;SDS011;1679;50.392;8.008;2023-06-10T02:36:58;13.67;;;12.67;;
3333;SDS011;1679;50.392;8.008;2023-06-10T02:39:24;13.80;;;12.63;;
3333;SDS011;1679;50.392;8.008;2023-06-10T02:41:52;14.37;;;13.13;;
3333;SDS011;1679;50.392;8.008;2023-06-10T02:44:19;14.10;;;13.00;;
3333;SDS011;1679;50.392;8.008;2023-06-10T02:46:45;14.60;;;13.27;;
3333;SDS011;1679;50.392;8.008;2023-06-10T02:49:11;14.10;;;12.63;;
3333;SDS011;1679;50.392;8.008;2023-06-10T02:51:37;13.90;;;12.70;;
3333;SDS011;1679;50.392;8.008;2023-06-10T02:54:03;14.63;;;13.17;;
3333;SDS011;1679;50.392;8.008;2023-06-10T02:56:30;13.27;;;12.27;;
3333;SDS011;1679;50.392;8.008;2023-06-10T02:58:56;13.43;;;12.33;;
3333;SDS011;1679;50.392;8.008;2023-06-10T03:01:23;14.03;;;12.83;;
3333;SDS011;1679;50.392;8.008;2023-06-10T03:03:49;14.60;;;13.33;;
3333;SDS011;1679;50.392;8.008;2023-06-10T03:06:15;13.67;;;12.37;;
3333;SDS011;1679;50.392;8.008;2023-06-10T03:08:41;14.43;;;13.07;;
3333;SDS011;1679;50.392;8.008;2023-06-10T03:11:07;14.10;;;12.87;;
3333;SDS011;1679;50.392;8.008;2023-06-10T03:13:33;14.07;;;12.77;;
3333;SDS011;1679;50.392;8.008;2023-06-10T03:15:58;14.67;;;13.50;;
3333;SDS011;1679;50.392;8.008;2023-06-10T03:18:25;14.33;;;12.97;;
3333;SDS011;1679;50.392;8.008;2023-06-10T03:20:52;14.60;;;13.10;;
3333;SDS011;1679;50.392;8.008;2023-06-10T03:23:18;14.47;;;13.37;;
3333;SDS011;1679;50.392;8.008;2023-06-10T03:25:44;13.57;;;12.37;;
3333;SDS011;1679;50.392;8.008;2023-06-10T03:28:10;14.77;;;13.67;;
3333;SDS011;1679;50.392;8.008;2023-06-10T03:30:36;14.13;;;13.03;;
3333;SDS011;1679;50.392;8.008;2023-06-10T03:33:01;14.37;;;13.17;;
3333;SDS011;1679;50.392;8.008;2023-06-10T03:35:27;14.00;;;12.63;;
3333;SDS011;1679;50.392;8.008;2023-06-10T03:37:52;14.30;;;12.87;;
3333;SDS011;1679;50.392;8.008;2023-06-10T03:40:18;14.87;;;13.57;;
3333;SDS011;1679;50.392;8.008;2023-06-10T03:42:43;13.37;;;12.37;;
3333;SDS011;1679;50.392;8.008;2023-06-10T03:45:09;15.07;;;13.77;;
3333;SDS011;1679;50.392;8.008;2023-06-10T03:47:36;14.03;;;12.83;;
3333;SDS011;1679;50.392;8.008;2023-06-10T03:50:02;14.30;;;12.93;;
3333;SDS011;1679;50.392;8.008;2023-06-10T03:52:29;14.63;;;13.30;;
3333;SDS011;1679;50.392;8.008;2023-06-10T03:54:55;13.30;;;12.23;;
3333;SDS011;1679;50.392;8.008;2023-06-10T03:57:20;14.10;;;12.90;;
3333;SDS011;1679;50.392;8.008;2023-06-10T03:59:46;14.77;;;13.37;;
3333;SDS011;1679;50.392;8.008;2023-06-10T04:02:11;14.50;;;13.30;;
3333;SDS011;1679;50.392;8.008;2023-06-10T04:04:37;15.77;;;13.00;;
3333;SDS011;1679;50.392;8.008;2023-06-10T04:07:03;13.40;;;12.20;;
3333;SDS011;1679;50.392;8.008;2023-06-10T04:09:30;14.90;;;13.70;;
3333;SDS011;1679;50.392;8.008;2023-06-10T04:11:55;15.33;;;14.13;;
3333;SDS011;1679;50.392;8.008;2023-06-10T04:14:21;13.90;;;12.67;;
3333;SDS011;1679;50.392;8.008;2023-06-10T04:16:47;14.70;;;13.30;;
3333;SDS011;1679;50.392;8.008;2023-06-10T04:19:12;15.00;;;13.70;;
3333;SDS011;1679;50.392;8.008;2023-06-10T04:21:38;14.40;;;12.97;;
3333;SDS011;1679;50.392;8.008;2023-06-10T04:24:04;14.27;;;13.07;;
3333;SDS011;1679;50.392;8.008;2023-06-10T04:26:29;14.60;;;13.50;;
3333;SDS011;1679;50.392;8.008;2023-06-10T04:28:55;15.07;;;13.73;;
3333;SDS011;1679;50.392;8.008;2023-06-10T04:31:20;16.10;;;14.50;;
3333;SDS011;1679;50.392;8.008;2023-06-10T04:33:46;15.17;;;13.97;;
3333;SDS011;1679;50.392;8.008;2023-06-10T04:36:13;14.93;;;13.70;;
3333;SDS011;1679;50.392;8.008;2023-06-10T04:38:39;15.63;;;14.13;;
3333;SDS011;1679;50.392;8.008;2023-06-10T04:41:06;14.00;;;12.90;;
3333;SDS011;1679;50.392;8.008;2023-06-10T04:43:33;14.27;;;13.17;;
3333;SDS011;1679;50.392;8.008;2023-06-10T04:45:59;14.33;;;13.23;;
3333;SDS011;1679;50.392;8.008;2023-06-10T04:48:27;14.37;;;13.07;;
3333;SDS011;1679;50.392;8.008;2023-06-10T04:50:52;14.03;;;12.93;;
3333;SDS011;1679;50.392;8.008;2023-06-10T04:53:18;15.40;;;14.00;;
3333;SDS011;1679;50.392;8.008;2023-06-10T04:55:43;14.57;;;13.33;;
3333;SDS011;1679;50.392;8.008;2023-06-10T04:58:09;14.73;;;13.53;;
3333;SDS011;1679;50.392;8.008;2023-06-10T05:00:34;14.73;;;13.40;;
3333;SDS011;1679;50.392;8.008;2023-06-10T05:03:01;14.17;;;12.93;;
3333;SDS011;1679;50.392;8.008;2023-06-10T05:05:26;13.27;;;12.30;;
3333;SDS011;1679;50.392;8.008;2023-06-10T05:07:52;15.10;;;13.83;;
3333;SDS011;1679;50.392;8.008;2023-06-10T05:10:17;14.30;;;13.13;;
3333;SDS011;1679;50.392;8.008;2023-06-10T05:12:43;15.30;;;13.80;;
3333;SDS011;1679;50.392;8.008;2023-06-10T05:15:09;14.10;;;13.00;;
3333;SDS011;1679;50.392;8.008;2023-06-10T05:17:34;15.90;;;14.47;;
3333;SDS011;1679;50.392;8.008;2023-06-10T05:20:01;15.33;;;13.90;;
3333;SDS011;1679;50.392;8.008;2023-06-10T05:22:27;19.17;;;13.30;;
3333;SDS011;1679;50.392;8.008;2023-06-10T05:24:52;13.80;;;12.70;;
3333;SDS011;1679;50.392;8.008;2023-06-10T05:27:18;13.93;;;12.83;;
3333;SDS011;1679;50.392;8.008;2023-06-10T05:29:44;14.67;;;13.57;;
3333;SDS011;1679;50.392;8.008;2023-06-10T05:32:11;12.80;;;11.80;;
3333;SDS011;1679;50.392;8.008;2023-06-10T05:34:37;13.40;;;12.27;;
3333;SDS011;1679;50.392;8.008;2023-06-10T05:37:03;12.63;;;11.63;;
3333;SDS011;1679;50.392;8.008;2023-06-10T05:39:29;12.17;;;11.17;;
3333;SDS011;1679;50.392;8.008;2023-06-10T05:41:54;12.90;;;11.90;;
3333;SDS011;1679;50.392;8.008;2023-06-10T05:44:20;13.37;;;12.07;;
3333;SDS011;1679;50.392;8.008;2023-06-10T05:46:45;14.13;;;13.00;;
3333;SDS011;1679;50.392;8.008;2023-06-10T05:49:11;13.00;;;12.00;;
3333;SDS011;1679;50.392;8.008;2023-06-10T05:51:36;12.30;;;11.20;;
3333;SDS011;1679;50.392;8.008;2023-06-10T05:54:02;11.80;;;10.90;;
3333;SDS011;1679;50.392;8.008;2023-06-10T05:56:28;13.77;;;12.50;;
3333;SDS011;1679;50.392;8.008;2023-06-10T05:58:53;13.70;;;12.57;;
3333;SDS011;1679;50.392;8.008;2023-06-10T06:01:19;12.83;;;11.83;;
3333;SDS011;1679;50.392;8.008;2023-06-10T06:03:45;12.00;;;11.07;;
3333;SDS011;1679;50.392;8.008;2023-06-10T06:06:10;13.50;;;12.40;;
3333;SDS011;1679;50.392;8.008;2023-06-10T06:08:36;13.07;;;12.07;;
3333;SDS011;1679;50.392;8.008;2023-06-10T06:11:03;13.23;;;12.03;;
3333;SDS011;1679;50.392;8.008;2023-06-10T06:13:31;12.53;;;11.30;;
3333;SDS011;1679;50.392;8.008;2023-06-10T06:15:56;12.90;;;11.90;;
3333;SDS011;1679;50.392;8.008;2023-06-10T06:18:22;10.97;;;9.97;;
3333;SDS011;1679;50.392;8.008;2023-06-10T06:20:48;12.50;;;11.50;;
3333;SDS011;1679;50.392;8.008;2023-06-10T06:23:14;11.93;;;10.90;;
3333;SDS011;1679;50.392;8.008;2023-06-10T06:25:40;11.63;;;10.63;;
3333;SDS011;1679;50.392;8.008;2023-06-10T06:28:06;12.50;;;11.53;;
3333;SDS011;1679;50.392;8.008;2023-06-10T06:30:32;12.53;;;11.43;;
3333;SDS011;1679;50.392;8.008;2023-06-10T06:32:58;11.97;;;11.00;;
3333;SDS011;1679;50.392;8.008;2023-06-10T06:35:24;11.50;;;10.30;;
3333;SDS011;1679;50.392;8.008;2023-06-10T06:37:49;13.03;;;11.70;;
3333;SDS011;1679;50.392;8.008;2023-06-10T06:40:15;13.00;;;11.80;;
3333;SDS011;1679;50.392;8.008;2023-06-10T06:42:40;12.50;;;11.40;;
3333;SDS011;1679;50.392;8.008;2023-06-10T06:45:06;11.43;;;10.63;;
3333;SDS011;1679;50.392;8.008;2023-06-10T06:47:32;11.90;;;10.90;;
3333;SDS011;1679;50.392;8.008;2023-06-10T06:49:57;10.13;;;9.40;;
3333;SDS011;1679;50.392;8.008;2023-06-10T06:52:24;12.10;;;10.70;;
3333;SDS011;1679;50.392;8.008;2023-06-10T06:54:50;10.63;;;9.80;;
3333;SDS011;1679;50.392;8.008;2023-06-10T06:57:15;11.20;;;10.20;;
3333;SDS011;1679;50.392;8.008;2023-06-10T06:59:41;11.60;;;10.67;;
3333;SDS011;1679;50.392;8.008;2023-06-10T07:02:07;11.03;;;10.13;;
3333;SDS011;1679;50.392;8.008;2023-06-10T07:04:33;10.40;;;9.60;;
3333;SDS011;1679;50.392;8.008;2023-06-10T07:06:58;11.47;;;10.57;;
3333;SDS011;1679;50.392;8.008;2023-06-10T07:09:24;9.97;;;9.27;;
3333;SDS011;1679;50.392;8.008;2023-06-10T07:11:53;11.30;;;9.30;;
3333;SDS011;1679;50.392;8.008;2023-06-10T07:14:18;10.57;;;9.60;;
3333;SDS011;1679;50.392;8.008;2023-06-10T07:16:43;10.07;;;9.33;;
3333;SDS011;1679;50.392;8.008;2023-06-10T07:19:12;10.77;;;9.87;;
3333;SDS011;1679;50.392;8.008;2023-06-10T07:21:38;9.57;;;8.77;;
3333;SDS011;1679;50.392;8.008;2023-06-10T07:24:05;10.70;;;9.73;;
3333;SDS011;1679;50.392;8.008;2023-06-10T07:26:30;13.10;;;10.03;;
3333;SDS011;1679;50.392;8.008;2023-06-10T07:28:57;8.97;;;8.27;;
3333;SDS011;1679;50.392;8.008;2023-06-10T07:31:23;9.43;;;8.73;;
3333;SDS011;1679;50.392;8.008;2023-06-10T07:33:49;8.67;;;8.07;;
3333;SDS011;1679;50.392;8.008;2023-06-10T07:36:15;8.40;;;7.80;;
3333;SDS011;1679;50.392;8.008;2023-06-10T07:38:41;8.87;;;7.97;;
3333;SDS011;1679;50.392;8.008;2023-06-10T07:41:08;9.07;;;8.47;;
3333;SDS011;1679;50.392;8.008;2023-06-10T07:43:34;7.93;;;7.33;;
3333;SDS011;1679;50.392;8.008;2023-06-10T07:45:59;8.40;;;7.60;;
3333;SDS011;1679;50.392;8.008;2023-06-10T07:48:25;9.10;;;8.30;;
3333;SDS011;1679;50.392;8.008;2023-06-10T07:50:51;8.37;;;7.87;;
3333;SDS011;1679;50.392;8.008;2023-06-10T07:53:18;8.80;;;8.20;;
3333;SDS011;1679;50.392;8.008;2023-06-10T07:55:43;8.30;;;7.70;;
3333;SDS011;1679;50.392;8.008;2023-06-10T07:58:09;10.23;;;8.03;;
3333;SDS011;1679;50.392;8.008;2023-06-10T08:00:35;8.97;;;8.17;;
3333;SDS011;1679;50.392;8.008;2023-06-10T08:03:02;9.20;;;8.30;;
3333;SDS011;1679;50.392;8.008;2023-06-10T08:05:27;9.63;;;8.83;;
3333;SDS011;1679;50.392;8.008;2023-06-10T08:07:54;9.83;;;9.13;;
3333;SDS011;1679;50.392;8.008;2023-06-10T08:10:20;8.73;;;8.03;;
3333;SDS011;1679;50.392;8.008;2023-06-10T08:12:45;8.63;;;7.97;;
3333;SDS011;1679;50.392;8.008;2023-06-10T08:15:11;9.40;;;8.70;;
3333;SDS011;1679;50.392;8.008;2023-06-10T08:17:37;8.97;;;8.13;;
3333;SDS011;1679;50.392;8.008;2023-06-10T08:20:05;9.80;;;8.80;;
3333;SDS011;1679;50.392;8.008;2023-06-10T08:22:31;9.43;;;8.63;;
3333;SDS011;1679;50.392;8.008;2023-06-10T08:24:56;9.27;;;8.53;;
3333;SDS011;1679;50.392;8.008;2023-06-10T08:27:22;8.90;;;8.40;;
3333;SDS011;1679;50.392;8.008;2023-06-10T08:29:48;9.37;;;8.67;;
3333;SDS011;1679;50.392;8.008;2023-06-10T08:32:13;9.07;;;8.23;;
3333;SDS011;1679;50.392;8.008;2023-06-10T08:34:39;9.53;;;8.60;;
3333;SDS011;1679;50.392;8.008;2023-06-10T08:37:05;9.70;;;8.80;;
3333;SDS011;1679;50.392;8.008;2023-06-10T08:39:31;9.00;;;8.40;;
3333;SDS011;1679;50.392;8.008;2023-06-10T08:42:05;9.80;;;9.20;;
3333;SDS011;1679;50.392;8.008;2023-06-10T08:44:56;9.57;;;8.87;;
3333;SDS011;1679;50.392;8.008;2023-06-10T08:47:22;9.87;;;9.17;;
3333;SDS011;1679;50.392;8.008;2023-06-10T08:49:50;9.57;;;8.33;;
3333;SDS011;1679;50.392;8.008;2023-06-10T08:52:18;10.70;;;8.90;;
3333;SDS011;1679;50.392;8.008;2023-06-10T08:55:30;9.40;;;8.53;;
3333;SDS011;1679;50.392;8.008;2023-06-10T08:57:37;9.93;;;9.13;;
3333;SDS011;1679;50.392;8.008;2023-06-10T09:00:02;9.80;;;9.10;;
3333;SDS011;1679;50.392;8.008;2023-06-10T09:02:29;9.95;;;9.15;;
3333;SDS011;1679;50.392;8.008;2023-06-10T09:04:56;9.07;;;8.57;;
3333;SDS011;1679;50.392;8.008;2023-06-10T09:07:22;9.77;;;9.18;;
3333;SDS011;1679;50.392;8.008;2023-06-10T09:09:48;9.63;;;8.93;;
3333;SDS011;1679;50.392;8.008;2023-06-10T09:12:15;11.97;;;9.30;;
3333;SDS011;1679;50.392;8.008;2023-06-10T09:14:41;10.90;;;9.90;;
3333;SDS011;1679;50.392;8.008;2023-06-10T09:17:07;8.80;;;8.20;;
3333;SDS011;1679;50.392;8.008;2023-06-10T09:19:32;9.70;;;8.90;;
3333;SDS011;1679;50.392;8.008;2023-06-10T09:21:58;9.63;;;8.93;;
3333;SDS011;1679;50.392;8.008;2023-06-10T09:24:25;8.90;;;8.20;;
3333;SDS011;1679;50.392;8.008;2023-06-10T09:26:50;9.20;;;8.50;;
3333;SDS011;1679;50.392;8.008;2023-06-10T09:29:31;9.20;;;8.53;;
3333;SDS011;1679;50.392;8.008;2023-06-10T09:32:10;8.97;;;8.37;;
3333;SDS011;1679;50.392;8.008;2023-06-10T09:34:36;9.23;;;8.53;;
3333;SDS011;1679;50.392;8.008;2023-06-10T09:37:01;8.50;;;7.90;;
3333;SDS011;1679;50.392;8.008;2023-06-10T09:39:27;9.20;;;8.40;;
3333;SDS011;1679;50.392;8.008;2023-06-10T09:41:52;9.30;;;8.60;;
3333;SDS011;1679;50.392;8.008;2023-06-10T09:44:19;8.57;;;8.07;;
3333;SDS011;1679;50.392;8.008;2023-06-10T09:46:46;9.50;;;8.37;;
3333;SDS011;1679;50.392;8.008;2023-06-10T09:49:13;8.90;;;8.10;;
3333;SDS011;1679;50.392;8.008;2023-06-10T09:51:51;9.23;;;8.40;;
3333;SDS011;1679;50.392;8.008;2023-06-10T09:54:18;9.27;;;8.57;;
3333;SDS011;1679;50.392;8.008;2023-06-10T09:56:48;8.83;;;7.90;;
3333;SDS011;1679;50.392;8.008;2023-06-10T09:59:16;8.70;;;8.20;;
3333;SDS011;1679;50.392;8.008;2023-06-10T10:01:55;10.98;;;8.48;;
3333;SDS011;1679;50.392;8.008;2023-06-10T10:04:24;9.23;;;7.55;;
3333;SDS011;1679;50.392;8.008;2023-06-10T10:06:50;9.25;;;8.55;;
3333;SDS011;1679;50.392;8.008;2023-06-10T10:09:17;8.60;;;7.90;;
3333;SDS011;1679;50.392;8.008;2023-06-10T10:11:43;8.38;;;7.53;;
3333;SDS011;1679;50.392;8.008;2023-06-10T10:14:09;7.75;;;7.22;;
3333;SDS011;1679;50.392;8.008;2023-06-10T10:16:37;8.38;;;7.60;;
3333;SDS011;1679;50.392;8.008;2023-06-10T10:19:40;8.45;;;7.75;;
3333;SDS011;1679;50.392;8.008;2023-06-10T10:22:03;10.20;;;7.75;;
3333;SDS011;1679;50.392;8.008;2023-06-10T10:24:36;8.50;;;7.88;;
3333;SDS011;1679;50.392;8.008;2023-06-10T10:27:07;7.72;;;7.10;;
3333;SDS011;1679;50.392;8.008;2023-06-10T10:29:52;10.80;;;7.93;;
3333;SDS011;1679;50.392;8.008;2023-06-10T10:32:24;9.30;;;8.60;;
3333;SDS011;1679;50.392;8.008;2023-06-10T10:35:07;8.85;;;7.97;;
3333;SDS011;1679;50.392;8.008;2023-06-10T10:37:37;8.13;;;7.45;;
3333;SDS011;1679;50.392;8.008;2023-06-10T10:40:03;8.35;;;7.50;;
3333;SDS011;1679;50.392;8.008;2023-06-10T10:42:31;7.80;;;7.40;;
3333;SDS011;1679;50.392;8.008;2023-06-10T10:44:57;8.73;;;7.82;;
3333;SDS011;1679;50.392;8.008;2023-06-10T10:47:23;8.60;;;7.30;;
3333;SDS011;1679;50.392;8.008;2023-06-10T10:49:55;7.40;;;6.82;;
3333;SDS011;1679;50.392;8.008;2023-06-10T10:52:24;12.65;;;7.22;;
3333;SDS011;1679;50.392;8.008;2023-06-10T10:54:50;8.00;;;7.30;;
3333;SDS011;1679;50.392;8.008;2023-06-10T10:57:19;16.67;;;7.97;;
3333;SDS011;1679;50.392;8.008;2023-06-10T11:02:15;7.87;;;7.17;;
3333;SDS011;1679;50.392;8.008;2023-06-10T11:04:46;7.50;;;7.10;;
3333;SDS011;1679;50.392;8.008;2023-06-10T11:07:13;7.30;;;6.70;;
3333;SDS011;1679;50.392;8.008;2023-06-10T11:10:00;7.13;;;6.63;;
3333;SDS011;1679;50.392;8.008;2023-06-10T11:15:10;8.30;;;7.13;;
3333;SDS011;1679;50.392;8.008;2023-06-10T11:17:36;8.17;;;7.47;;
3333;SDS011;1679;50.392;8.008;2023-06-10T11:20:02;8.33;;;7.73;;
3333;SDS011;1679;50.392;8.008;2023-06-10T11:22:27;7.53;;;7.03;;
3333;SDS011;1679;50.392;8.008;2023-06-10T11:24:53;7.93;;;7.30;;
3333;SDS011;1679;50.392;8.008;2023-06-10T11:27:19;7.73;;;7.10;;
3333;SDS011;1679;50.392;8.008;2023-06-10T11:32:31;14.60;;;8.50;;
3333;SDS011;1679;50.392;8.008;2023-06-10T11:34:59;9.43;;;7.70;;
3333;SDS011;1679;50.392;8.008;2023-06-10T11:37:27;7.40;;;7.00;;
3333;SDS011;1679;50.392;8.008;2023-06-10T11:39:53;7.20;;;6.80;;
3333;SDS011;1679;50.392;8.008;2023-06-10T11:42:20;8.37;;;7.73;;
3333;SDS011;1679;50.392;8.008;2023-06-10T11:44:49;7.87;;;7.07;;
3333;SDS011;1679;50.392;8.008;2023-06-10T11:47:16;8.50;;;8.00;;
3333;SDS011;1679;50.392;8.008;2023-06-10T11:49:46;8.97;;;7.90;;
3333;SDS011;1679;50.392;8.008;2023-06-10T11:52:30;7.90;;;7.20;;
3333;SDS011;1679;50.392;8.008;2023-06-10T11:55:04;8.40;;;7.70;;
3333;SDS011;1679;50.392;8.008;2023-06-10T11:57:33;8.17;;;7.50;;
3333;SDS011;1679;50.392;8.008;2023-06-10T12:00:03;8.53;;;8.03;;
3333;SDS011;1679;50.392;8.008;2023-06-10T12:02:32;13.47;;;8.30;;
3333;SDS011;1679;50.392;8.008;2023-06-10T12:05:09;8.60;;;8.00;;
3333;SDS011;1679;50.392;8.008;2023-06-10T12:07:36;9.50;;;8.53;;
3333;SDS011;1679;50.392;8.008;2023-06-10T12:10:02;10.33;;;7.40;;
3333;SDS011;1679;50.392;8.008;2023-06-10T12:12:28;9.33;;;7.67;;
3333;SDS011;1679;50.392;8.008;2023-06-10T12:14:57;7.63;;;7.03;;
3333;SDS011;1679;50.392;8.008;2023-06-10T12:17:34;7.93;;;7.23;;
3333;SDS011;1679;50.392;8.008;2023-06-10T12:20:24;7.60;;;6.67;;
3333;SDS011;1679;50.392;8.008;2023-06-10T12:22:51;11.67;;;7.07;;
3333;SDS011;1679;50.392;8.008;2023-06-10T12:25:17;7.40;;;6.90;;
3333;SDS011;1679;50.392;8.008;2023-06-10T12:27:53;7.13;;;6.47;;
3333;SDS011;1679;50.392;8.008;2023-06-10T12:30:21;7.60;;;6.53;;
3333;SDS011;1679;50.392;8.008;2023-06-10T12:32:49;6.87;;;6.47;;
3333;SDS011;1679;50.392;8.008;2023-06-10T12:35:19;6.07;;;5.43;;
3333;SDS011;1679;50.392;8.008;2023-06-10T12:38:02;6.90;;;6.50;;
3333;SDS011;1679;50.392;8.008;2023-06-10T12:40:32;7.60;;;7.03;;
3333;SDS011;1679;50.392;8.008;2023-06-10T12:43:00;7.70;;;7.20;;
3333;SDS011;1679;50.392;8.008;2023-06-10T12:45:26;7.83;;;7.13;;
3333;SDS011;1679;50.392;8.008;2023-06-10T12:48:03;7.53;;;7.03;;
3333;SDS011;1679;50.392;8.008;2023-06-10T12:50:30;7.33;;;6.57;;
3333;SDS011;1679;50.392;8.008;2023-06-10T12:52:56;7.17;;;6.57;;
3333;SDS011;1679;50.392;8.008;2023-06-10T12:55:22;7.23;;;6.00;;
3333;SDS011;1679;50.392;8.008;2023-06-10T12:57:48;7.23;;;6.70;;
3333;SDS011;1679;50.392;8.008;2023-06-10T13:00:15;7.83;;;6.57;;
3333;SDS011;1679;50.392;8.008;2023-06-10T13:02:41;6.87;;;6.17;;
3333;SDS011;1679;50.392;8.008;2023-06-10T13:05:07;6.57;;;6.17;;
3333;SDS011;1679;50.392;8.008;2023-06-10T13:07:33;7.10;;;6.40;;
3333;SDS011;1679;50.392;8.008;2023-06-10T13:09:58;6.83;;;6.13;;
3333;SDS011;1679;50.392;8.008;2023-06-10T13:12:25;5.70;;;5.30;;
3333;SDS011;1679;50.392;8.008;2023-06-10T13:14:53;6.90;;;6.40;;
3333;SDS011;1679;50.392;8.008;2023-06-10T13:17:19;6.63;;;6.03;;
3333;SDS011;1679;50.392;8.008;2023-06-10T13:19:45;6.70;;;6.20;;
3333;SDS011;1679;50.392;8.008;2023-06-10T13:22:11;7.23;;;6.53;;
3333;SDS011;1679;50.392;8.008;2023-06-10T13:24:38;7.03;;;6.50;;
3333;SDS011;1679;50.392;8.008;2023-06-10T13:27:04;6.40;;;6.00;;
3333;SDS011;1679;50.392;8.008;2023-06-10T13:29:31;7.27;;;6.37;;
3333;SDS011;1679;50.392;8.008;2023-06-10T13:31:57;7.97;;;7.17;;
3333;SDS011;1679;50.392;8.008;2023-06-10T13:34:22;6.50;;;6.00;;
3333;SDS011;1679;50.392;8.008;2023-06-10T13:36:48;6.40;;;5.80;;
3333;SDS011;1679;50.392;8.008;2023-06-10T13:39:13;6.97;;;6.47;;
3333;SDS011;1679;50.392;8.008;2023-06-10T13:41:40;6.73;;;6.23;;
3333;SDS011;1679;50.392;8.008;2023-06-10T13:44:06;6.50;;;6.10;;
3333;SDS011;1679;50.392;8.008;2023-06-10T13:46:31;6.73;;;6.33;;
3333;SDS011;1679;50.392;8.008;2023-06-10T13:48:57;6.43;;;6.03;;
3333;SDS011;1679;50.392;8.008;2023-06-10T13:51:22;7.13;;;6.40;;
3333;SDS011;1679;50.392;8.008;2023-06-10T13:53:48;6.67;;;6.27;;
3333;SDS011;1679;50.392;8.008;2023-06-10T13:56:15;7.50;;;6.90;;
3333;SDS011;1679;50.392;8.008;2023-06-10T13:58:40;8.10;;;7.37;;
3333;SDS011;1679;50.392;8.008;2023-06-10T14:01:07;7.00;;;6.40;;
3333;SDS011;1679;50.392;8.008;2023-06-10T14:03:33;6.10;;;5.67;;
3333;SDS011;1679;50.392;8.008;2023-06-10T14:05:59;6.37;;;5.87;;
3333;SDS011;1679;50.392;8.008;2023-06-10T14:08:24;6.90;;;6.50;;
3333;SDS011;1679;50.392;8.008;2023-06-10T14:10:50;6.90;;;6.40;;
3333;SDS011;1679;50.392;8.008;2023-06-10T14:13:16;7.00;;;6.47;;
3333;SDS011;1679;50.392;8.008;2023-06-10T14:15:42;7.70;;;6.27;;
3333;SDS011;1679;50.392;8.008;2023-06-10T14:18:08;6.27;;;5.93;;
3333;SDS011;1679;50.392;8.008;2023-06-10T14:20:33;6.57;;;6.17;;
3333;SDS011;1679;50.392;8.008;2023-06-10T14:22:59;6.50;;;6.10;;
3333;SDS011;1679;50.392;8.008;2023-06-10T14:25:24;6.83;;;6.33;;
3333;SDS011;1679;50.392;8.008;2023-06-10T14:27:50;7.17;;;6.43;;
3333;SDS011;1679;50.392;8.008;2023-06-10T14:30:16;7.00;;;6.60;;
3333;SDS011;1679;50.392;8.008;2023-06-10T14:32:42;7.60;;;7.00;;
3333;SDS011;1679;50.392;8.008;2023-06-10T14:35:07;7.40;;;6.63;;
3333;SDS011;1679;50.392;8.008;2023-06-10T14:37:33;6.93;;;6.50;;
3333;SDS011;1679;50.392;8.008;2023-06-10T14:39:59;7.40;;;7.00;;
3333;SDS011;1679;50.392;8.008;2023-06-10T14:42:24;5.97;;;5.67;;
3333;SDS011;1679;50.392;8.008;2023-06-10T14:44:50;7.50;;;7.00;;
3333;SDS011;1679;50.392;8.008;2023-06-10T14:47:16;7.40;;;6.73;;
3333;SDS011;1679;50.392;8.008;2023-06-10T14:49:41;7.10;;;6.40;;
3333;SDS011;1679;50.392;8.008;2023-06-10T14:52:07;6.70;;;6.20;;
3333;SDS011;1679;50.392;8.008;2023-06-10T14:54:33;6.60;;;6.27;;
3333;SDS011;1679;50.392;8.008;2023-06-10T14:56:59;6.63;;;6.23;;
3333;SDS011;1679;50.392;8.008;2023-06-10T14:59:24;7.30;;;6.30;;
3333;SDS011;1679;50.392;8.008;2023-06-10T15:01:50;6.80;;;6.30;;
3333;SDS011;1679;50.392;8.008;2023-06-10T15:04:15;6.40;;;6.10;;
3333;SDS011;1679;50.392;8.008;2023-06-10T15:06:41;7.20;;;6.67;;
3333;SDS011;1679;50.392;8.008;2023-06-10T15:09:08;7.03;;;6.53;;
3333;SDS011;1679;50.392;8.008;2023-06-10T15:11:33;7.33;;;6.70;;
3333;SDS011;1679;50.392;8.008;2023-06-10T15:13:59;7.20;;;6.50;;